createdAt,value
2022-11-23T00:02:15.617Z,72.25
2022-11-23T00:04:42.069Z,66.88
2022-11-23T00:07:08.574Z,71.90
2022-11-23T00:09:35.005Z,73.13
2022-11-23T00:12:01.438Z,74.47
2022-11-23T00:14:27.847Z,62.03
2022-11-23T00:16:54.272Z,72.32
2022-11-23T00:19:20.705Z,70.88
2022-11-23T00:21:47.164Z,70.50
2022-11-23T00:24:13.709Z,63.95
2022-11-23T00:26:40.210Z,66.03
2022-11-23T00:29:06.954Z,68.63
2022-11-23T00:31:33.351Z,70.75
2022-11-23T00:33:59.808Z,70.97
2022-11-23T00:36:27.521Z,67.28
2022-11-23T00:38:54.667Z,63.10
2022-11-23T00:41:24.237Z,69.32
2022-11-23T00:43:50.635Z,65.13
2022-11-23T00:46:24.740Z,65.35
2022-11-23T00:48:53.953Z,66.68
2022-11-23T00:51:25.896Z,69.18
2022-11-23T00:53:53.148Z,58.17
2022-11-23T00:56:20.515Z,64.03
2022-11-23T00:58:51.283Z,64.40
2022-11-23T01:01:19.981Z,62.45
2022-11-23T01:03:49.787Z,67.03
2022-11-23T01:06:24.128Z,67.15
2022-11-23T01:08:58.862Z,60.30
2022-11-23T01:11:27.617Z,63.97
2022-11-23T01:13:54.875Z,60.58
2022-11-23T01:16:29.863Z,70.75
2022-11-23T01:19:01.574Z,60.10
2022-11-23T01:21:29.427Z,66.88
2022-11-23T01:23:56.699Z,59.70
2022-11-23T01:26:23.771Z,60.20
2022-11-23T01:28:50.505Z,57.00
2022-11-23T01:31:22.360Z,62.20
2022-11-23T01:33:55.860Z,65.07
2022-11-23T01:36:25.729Z,59.28
2022-11-23T01:38:52.528Z,69.82
2022-11-23T01:41:24.977Z,61.05
2022-11-23T01:43:52.133Z,67.53
2022-11-23T01:46:19.095Z,63.30
2022-11-23T01:49:07.121Z,58.83
2022-11-23T01:51:39.517Z,60.55
2022-11-23T01:54:17.772Z,64.97
2022-11-23T01:56:47.926Z,67.25
2022-11-23T01:59:19.205Z,61.70
2022-11-23T02:01:45.731Z,59.97
2022-11-23T02:04:17.715Z,57.50
2022-11-23T02:06:47.375Z,61.10
2022-11-23T02:09:16.087Z,61.17
2022-11-23T02:11:42.612Z,60.22
2022-11-23T02:14:10.024Z,66.47
2022-11-23T02:16:38.601Z,57.55
2022-11-23T02:19:15.430Z,57.10
2022-11-23T02:21:43.555Z,60.03
2022-11-23T02:24:20.635Z,55.88
2022-11-23T02:26:47.208Z,61.45
2022-11-23T02:29:20.559Z,65.18
2022-11-23T02:31:47.118Z,56.05
2022-11-23T02:34:13.576Z,63.65
2022-11-23T02:36:44.655Z,58.28
2022-11-23T02:39:27.408Z,61.20
2022-11-23T02:41:55.559Z,64.18
2022-11-23T02:44:30.751Z,61.75
2022-11-23T02:46:58.179Z,64.97
2022-11-23T02:49:24.897Z,66.50
2022-11-23T02:51:51.970Z,59.40
2022-11-23T02:54:18.599Z,66.47
2022-11-23T02:56:45.045Z,67.05
2022-11-23T02:59:11.522Z,64.00
2022-11-23T03:01:40.142Z,61.70
2022-11-23T03:04:07.648Z,62.83
2022-11-23T03:06:34.043Z,61.95
2022-11-23T03:09:00.456Z,58.10
2022-11-23T03:11:27.057Z,58.78
2022-11-23T03:13:53.464Z,57.67
2022-11-23T03:16:20.065Z,58.08
2022-11-23T03:18:46.444Z,59.00
2022-11-23T03:21:12.891Z,57.10
2022-11-23T03:23:39.310Z,57.47
2022-11-23T03:26:11.311Z,55.22
2022-11-23T03:28:39.334Z,56.65
2022-11-23T03:31:05.944Z,56.78
2022-11-23T03:33:32.662Z,56.75
2022-11-23T03:35:59.096Z,60.90
2022-11-23T03:38:27.357Z,56.50
2022-11-23T03:40:53.813Z,58.95
2022-11-23T03:43:21.323Z,56.55
2022-11-23T03:45:48.214Z,60.22
2022-11-23T03:48:15.328Z,51.58
2022-11-23T03:50:45.099Z,60.22
2022-11-23T03:53:12.553Z,58.00
2022-11-23T03:55:38.996Z,58.20
2022-11-23T03:58:05.864Z,59.97
2022-11-23T04:00:32.286Z,57.83
2022-11-23T04:02:58.708Z,64.72
2022-11-23T04:05:25.241Z,48.70
2022-11-23T04:07:51.696Z,58.80
2022-11-23T04:10:19.494Z,58.72
2022-11-23T04:12:49.934Z,54.67
2022-11-23T04:15:16.599Z,57.22
2022-11-23T04:17:43.463Z,57.40
2022-11-23T04:20:10.241Z,51.53
2022-11-23T04:22:36.687Z,54.63
2022-11-23T04:25:03.288Z,56.15
2022-11-23T04:27:29.689Z,59.55
2022-11-23T04:29:56.092Z,58.45
2022-11-23T04:32:22.542Z,55.15
2022-11-23T04:34:49.044Z,58.70
2022-11-23T04:37:15.508Z,52.35
2022-11-23T04:39:42.197Z,53.50
2022-11-23T04:42:14.008Z,52.00
2022-11-23T04:44:40.397Z,58.78
2022-11-23T04:47:07.647Z,55.22
2022-11-23T04:49:34.304Z,49.72
2022-11-23T04:52:00.936Z,57.22
2022-11-23T04:54:27.333Z,57.25
2022-11-23T04:56:54.234Z,54.03
2022-11-23T04:59:20.785Z,56.92
2022-11-23T05:01:47.190Z,54.60
2022-11-23T05:04:17.637Z,59.28
2022-11-23T05:06:44.578Z,53.03
2022-11-23T05:09:11.278Z,57.88
2022-11-23T05:11:37.672Z,52.45
2022-11-23T05:14:04.150Z,49.63
2022-11-23T05:16:30.583Z,55.45
2022-11-23T05:18:57.395Z,52.72
2022-11-23T05:21:23.793Z,50.40
2022-11-23T05:23:50.213Z,52.22
2022-11-23T05:26:16.599Z,58.10
2022-11-23T05:28:42.984Z,54.92
2022-11-23T05:31:09.753Z,52.80
2022-11-23T05:33:36.512Z,53.40
2022-11-23T05:36:03.004Z,55.38
2022-11-23T05:38:29.427Z,54.25
2022-11-23T05:40:57.271Z,55.97
2022-11-23T05:43:23.683Z,56.00
2022-11-23T05:45:50.130Z,51.05
2022-11-23T05:48:16.712Z,54.47
2022-11-23T05:50:43.145Z,50.90
2022-11-23T05:53:10.028Z,52.72
2022-11-23T05:55:36.567Z,51.08
2022-11-23T05:58:03.768Z,54.20
2022-11-23T06:00:30.342Z,47.88
2022-11-23T06:03:03.788Z,58.00
2022-11-23T06:05:30.288Z,58.20
2022-11-23T06:07:57.178Z,51.28
2022-11-23T06:10:23.609Z,54.78
2022-11-23T06:12:50.064Z,56.67
2022-11-23T06:15:17.994Z,49.70
2022-11-23T06:17:44.561Z,50.03
2022-11-23T06:20:11.329Z,57.45
2022-11-23T06:22:37.745Z,49.58
2022-11-23T06:25:04.477Z,45.75
2022-11-23T06:27:30.889Z,52.47
2022-11-23T06:29:57.673Z,54.13
2022-11-23T06:32:24.106Z,49.40
2022-11-23T06:34:50.483Z,51.17
2022-11-23T06:37:16.931Z,50.92
2022-11-23T06:39:43.368Z,56.40
2022-11-23T06:42:37.890Z,53.00
2022-11-23T06:44:56.291Z,47.72
2022-11-23T06:47:26.276Z,53.53
2022-11-23T06:49:53.281Z,47.75
2022-11-23T06:52:19.927Z,53.20
2022-11-23T06:54:46.442Z,53.35
2022-11-23T06:57:12.928Z,53.78
2022-11-23T06:59:43.298Z,49.28
2022-11-23T07:02:14.544Z,48.63
2022-11-23T07:04:43.429Z,49.40
2022-11-23T07:07:09.958Z,45.28
2022-11-23T07:09:36.481Z,47.40
2022-11-23T07:12:03.015Z,54.63
2022-11-23T07:14:29.471Z,52.03
2022-11-23T07:16:58.413Z,47.15
2022-11-23T07:19:24.920Z,50.60
2022-11-23T07:21:51.348Z,50.25
2022-11-23T07:24:18.013Z,44.15
2022-11-23T07:26:44.417Z,47.13
2022-11-23T07:29:11.170Z,43.58
2022-11-23T07:31:37.839Z,56.22
2022-11-23T07:34:05.117Z,48.58
2022-11-23T07:36:31.622Z,52.85
2022-11-23T07:38:58.404Z,39.55
2022-11-23T07:41:27.722Z,45.30
2022-11-23T07:43:54.623Z,52.63
2022-11-23T07:46:21.525Z,46.10
2022-11-23T07:48:48.077Z,42.75
2022-11-23T07:51:16.090Z,50.05
2022-11-23T07:53:42.475Z,51.20
2022-11-23T07:56:08.903Z,45.58
2022-11-23T07:58:35.306Z,43.55
2022-11-23T08:01:01.660Z,49.30
2022-11-23T08:03:29.067Z,54.53
2022-11-23T08:05:56.294Z,47.10
2022-11-23T08:08:22.864Z,43.97
2022-11-23T08:10:53.270Z,50.40
2022-11-23T08:13:20.528Z,50.97
2022-11-23T08:15:53.390Z,42.22
2022-11-23T08:18:21.496Z,45.78
2022-11-23T08:20:47.990Z,47.22
2022-11-23T08:23:14.391Z,44.25
2022-11-23T08:25:43.449Z,46.17
2022-11-23T08:30:38.976Z,43.83
2022-11-23T08:33:06.778Z,38.15
2022-11-23T08:35:37.430Z,37.72
2022-11-23T08:38:05.066Z,36.22
2022-11-23T08:40:32.148Z,42.42
2022-11-23T08:42:58.822Z,43.70
2022-11-23T08:45:25.699Z,38.03
2022-11-23T08:47:53.173Z,41.63
2022-11-23T08:50:20.722Z,35.17
2022-11-23T08:52:47.185Z,36.50
2022-11-23T08:55:13.887Z,40.58
2022-11-23T08:57:40.353Z,39.90
2022-11-23T09:00:07.618Z,36.20
2022-11-23T09:02:34.140Z,43.75
2022-11-23T09:05:00.712Z,33.00
2022-11-23T09:07:27.480Z,32.20
2022-11-23T09:09:54.015Z,32.60
2022-11-23T09:12:20.396Z,26.17
2022-11-23T09:14:46.807Z,34.88
2022-11-23T09:17:13.282Z,32.90
2022-11-23T09:19:39.721Z,37.45
2022-11-23T09:22:06.265Z,30.40
2022-11-23T09:24:33.000Z,38.33
2022-11-23T09:26:59.666Z,31.45
2022-11-23T09:29:26.621Z,30.38
2022-11-23T09:31:53.128Z,29.25
2022-11-23T09:34:19.950Z,29.25
2022-11-23T09:36:46.867Z,27.77
2022-11-23T09:39:13.275Z,35.08
2022-11-23T09:42:19.471Z,30.30
2022-11-23T09:45:00.839Z,26.60
2022-11-23T09:47:55.131Z,24.20
2022-11-23T09:50:27.257Z,30.70
2022-11-23T09:52:54.239Z,26.83
2022-11-23T09:55:42.200Z,26.25
2022-11-23T09:58:15.550Z,25.88
2022-11-23T10:00:53.708Z,31.13
2022-11-23T10:03:20.276Z,28.98
2022-11-23T10:06:01.645Z,25.35
2022-11-23T10:08:46.048Z,26.23
2022-11-23T10:11:30.147Z,28.33
2022-11-23T10:14:31.929Z,29.35
2022-11-23T10:17:50.999Z,27.15
2022-11-23T10:20:36.072Z,24.80
2022-11-23T10:23:07.529Z,26.30
2022-11-23T10:25:42.648Z,25.17
2022-11-23T10:28:18.642Z,24.80
2022-11-23T10:30:56.010Z,23.38
2022-11-23T10:33:33.968Z,25.38
2022-11-23T10:36:00.397Z,24.40
2022-11-23T10:38:27.961Z,25.38
2022-11-23T10:41:11.098Z,25.77
2022-11-23T10:44:12.426Z,23.55
2022-11-23T10:46:40.569Z,23.27
2022-11-23T10:49:20.948Z,21.85
2022-11-23T10:51:51.750Z,18.67
2022-11-23T10:54:25.204Z,20.23
2022-11-23T10:56:53.650Z,19.92
2022-11-23T10:59:40.403Z,21.15
2022-11-23T11:02:22.616Z,20.20
2022-11-23T11:04:55.829Z,23.35
2022-11-23T11:07:28.491Z,19.92
2022-11-23T11:10:03.257Z,25.17
2022-11-23T11:12:33.102Z,18.98
2022-11-23T11:15:16.239Z,22.42
2022-11-23T11:17:42.930Z,24.90
2022-11-23T11:20:31.557Z,22.77
2022-11-23T11:23:16.473Z,22.50
2022-11-23T11:25:43.080Z,22.55
2022-11-23T11:28:23.719Z,20.05
2022-11-23T11:31:07.908Z,33.80
2022-11-23T11:33:53.541Z,23.77
2022-11-23T11:36:21.898Z,19.90
2022-11-23T11:39:17.350Z,18.75
2022-11-23T11:41:44.812Z,17.73
2022-11-23T11:44:20.499Z,20.80
2022-11-23T11:47:10.408Z,21.02
2022-11-23T11:49:48.168Z,18.67
2022-11-23T11:52:21.968Z,18.38
2022-11-23T11:55:01.458Z,18.42
2022-11-23T11:57:44.536Z,23.30
2022-11-23T12:00:15.403Z,22.73
2022-11-23T12:03:00.692Z,25.23
2022-11-23T12:05:36.509Z,24.90
2022-11-23T12:08:02.938Z,22.15
2022-11-23T12:10:41.766Z,24.52
2022-11-23T12:13:21.032Z,22.13
2022-11-23T12:15:57.929Z,19.83
2022-11-23T12:18:41.092Z,22.20
2022-11-23T12:21:44.882Z,23.13
2022-11-23T12:24:31.885Z,20.73
2022-11-23T12:27:32.452Z,20.70
2022-11-23T12:30:13.082Z,17.98
2022-11-23T12:32:45.497Z,22.73
2022-11-23T12:35:31.173Z,19.58
2022-11-23T12:38:14.970Z,19.40
2022-11-23T12:40:44.491Z,17.33
2022-11-23T12:43:46.615Z,16.58
2022-11-23T12:46:31.516Z,16.15
2022-11-23T12:49:16.612Z,20.65
2022-11-23T12:52:07.931Z,22.02
2022-11-23T12:54:54.478Z,20.73
2022-11-23T12:57:27.053Z,20.20
2022-11-23T13:00:00.641Z,16.65
2022-11-23T13:02:42.254Z,18.50
2022-11-23T13:05:29.284Z,17.30
2022-11-23T13:08:33.361Z,19.50
2022-11-23T13:11:05.707Z,21.20
2022-11-23T13:13:49.222Z,17.05
2022-11-23T13:16:45.213Z,19.27
2022-11-23T13:19:14.738Z,21.35
2022-11-23T13:21:44.622Z,20.55
2022-11-23T13:24:32.608Z,16.88
2022-11-23T13:27:14.820Z,17.08
2022-11-23T13:29:50.299Z,21.08
2022-11-23T13:32:59.779Z,17.25
2022-11-23T13:35:28.937Z,18.13
2022-11-23T13:37:58.216Z,19.83
2022-11-23T13:40:32.154Z,17.15
2022-11-23T13:43:24.293Z,20.88
2022-11-23T13:46:11.408Z,21.88
2022-11-23T13:48:58.004Z,17.75
2022-11-23T13:51:35.408Z,17.02
2022-11-23T13:54:05.179Z,16.75
2022-11-23T13:56:38.832Z,18.00
2022-11-23T13:59:29.125Z,21.42
2022-11-23T14:04:38.668Z,18.05
2022-11-23T14:07:15.898Z,18.38
2022-11-23T14:09:42.317Z,15.10
2022-11-23T14:12:11.505Z,16.80
2022-11-23T14:14:53.016Z,16.10
2022-11-23T14:17:22.461Z,13.95
2022-11-23T14:20:00.985Z,14.15
2022-11-23T14:22:39.585Z,18.33
2022-11-23T14:25:28.150Z,19.92
2022-11-23T14:28:07.304Z,14.18
2022-11-23T14:30:49.454Z,17.55
2022-11-23T14:33:26.979Z,18.95
2022-11-23T14:36:25.848Z,15.35
2022-11-23T14:39:20.261Z,15.68
2022-11-23T14:41:52.386Z,19.70
2022-11-23T14:44:26.002Z,16.95
2022-11-23T14:47:06.877Z,16.60
2022-11-23T14:49:33.572Z,18.85
2022-11-23T14:52:03.129Z,28.73
2022-11-23T14:54:31.016Z,17.57
2022-11-23T14:57:01.836Z,19.45
2022-11-23T14:59:38.699Z,16.98
2022-11-23T15:02:17.006Z,14.85
2022-11-23T15:05:11.354Z,14.05
2022-11-23T15:08:14.831Z,14.80
2022-11-23T15:11:07.395Z,16.17
2022-11-23T15:13:46.410Z,20.88
2022-11-23T15:16:14.589Z,18.45
2022-11-23T15:18:42.545Z,18.65
2022-11-23T15:21:12.344Z,24.50
2022-11-23T15:23:48.409Z,18.67
2022-11-23T15:26:47.359Z,20.48
2022-11-23T15:29:37.766Z,14.27
2022-11-23T15:32:30.613Z,16.67
2022-11-23T15:35:04.896Z,17.55
2022-11-23T15:37:32.863Z,21.90
2022-11-23T15:40:00.184Z,20.80
2022-11-23T15:42:27.555Z,22.48
2022-11-23T15:44:55.234Z,24.55
2022-11-23T15:47:27.274Z,19.48
2022-11-23T15:50:01.344Z,18.63
2022-11-23T15:52:33.109Z,22.45
2022-11-23T15:55:08.900Z,24.13
2022-11-23T15:57:37.900Z,17.77
2022-11-23T16:00:05.976Z,26.55
2022-11-23T16:02:32.701Z,23.75
2022-11-23T16:05:22.385Z,20.38
2022-11-23T16:07:53.321Z,17.98
2022-11-23T16:10:26.660Z,22.90
2022-11-23T16:13:01.389Z,21.95
2022-11-23T16:15:34.010Z,25.05
2022-11-23T16:18:01.513Z,21.00
2022-11-23T16:20:29.423Z,21.30
2022-11-23T16:22:57.199Z,21.77
2022-11-23T16:25:33.025Z,25.08
2022-11-23T16:27:59.445Z,27.08
2022-11-23T16:30:40.692Z,24.58
2022-11-23T16:33:14.625Z,26.17
2022-11-23T16:35:41.335Z,29.50
2022-11-23T16:38:08.128Z,28.83
2022-11-23T16:40:34.647Z,22.48
2022-11-23T16:43:01.196Z,25.85
2022-11-23T16:45:27.649Z,25.95
2022-11-23T16:48:02.543Z,34.33
2022-11-23T16:50:31.405Z,32.72
2022-11-23T16:53:02.067Z,30.45
2022-11-23T16:55:28.498Z,24.05
2022-11-23T16:57:56.212Z,25.63
2022-11-23T17:00:23.288Z,24.10
2022-11-23T17:02:49.782Z,26.52
2022-11-23T17:05:18.424Z,26.50
2022-11-23T17:07:45.059Z,27.05
2022-11-23T17:10:13.542Z,27.20
2022-11-23T17:12:41.866Z,24.80
2022-11-23T17:15:11.610Z,21.35
2022-11-23T17:17:38.035Z,24.48
2022-11-23T17:20:05.045Z,28.08
2022-11-23T17:22:31.545Z,22.52
2022-11-23T17:24:58.125Z,27.52
2022-11-23T17:27:25.282Z,25.40
2022-11-23T17:29:57.176Z,22.67
2022-11-23T17:32:23.654Z,26.90
2022-11-23T17:34:50.035Z,26.73
2022-11-23T17:37:23.927Z,26.35
2022-11-23T17:39:50.939Z,24.40
2022-11-23T17:42:17.700Z,23.25
2022-11-23T17:44:44.137Z,30.05
2022-11-23T17:47:38.040Z,27.98
2022-11-23T17:50:06.998Z,28.10
2022-11-23T17:52:33.550Z,26.70
2022-11-23T17:54:59.946Z,28.23
2022-11-23T17:57:27.429Z,33.97
2022-11-23T17:59:57.370Z,23.90
2022-11-23T18:02:25.681Z,32.00
2022-11-23T18:04:52.092Z,29.25
2022-11-23T18:07:18.713Z,31.05
2022-11-23T18:09:45.188Z,29.38
2022-11-23T18:12:11.642Z,29.20
2022-11-23T18:14:38.569Z,29.88
2022-11-23T18:17:04.993Z,33.55
2022-11-23T18:19:31.838Z,29.80
2022-11-23T18:21:58.507Z,36.97
2022-11-23T18:24:24.902Z,27.58
2022-11-23T18:26:51.310Z,27.02
2022-11-23T18:29:17.710Z,32.40
2022-11-23T18:31:44.284Z,31.95
2022-11-23T18:34:10.866Z,26.63
2022-11-23T18:36:37.383Z,26.20
2022-11-23T18:39:03.964Z,27.30
2022-11-23T18:41:30.486Z,33.33
2022-11-23T18:43:59.759Z,25.52
2022-11-23T18:46:26.210Z,26.33
2022-11-23T18:48:53.417Z,28.25
2022-11-23T18:51:19.880Z,23.20
2022-11-23T18:53:48.042Z,24.10
2022-11-23T18:56:14.645Z,29.60
2022-11-23T18:58:42.306Z,29.42
2022-11-23T19:01:14.176Z,28.00
2022-11-23T19:03:42.257Z,27.77
2022-11-23T19:06:13.339Z,31.35
2022-11-23T19:08:42.156Z,29.63
2022-11-23T19:11:19.100Z,25.35
2022-11-23T19:13:47.978Z,27.05
2022-11-23T19:16:17.004Z,22.88
2022-11-23T19:18:43.508Z,28.90
2022-11-23T19:21:19.751Z,33.03
2022-11-23T19:23:51.226Z,29.85
2022-11-23T19:26:18.282Z,35.15
2022-11-23T19:28:45.330Z,31.92
2022-11-23T19:31:17.270Z,28.67
2022-11-23T19:33:45.447Z,29.70
2022-11-23T19:36:18.006Z,24.25
2022-11-23T19:38:44.755Z,29.90
2022-11-23T19:41:12.177Z,24.40
2022-11-23T19:43:38.828Z,27.13
2022-11-23T19:46:07.204Z,31.92
2022-11-23T19:48:34.333Z,27.00
2022-11-23T19:51:06.178Z,35.05
2022-11-23T19:53:35.556Z,37.70
2022-11-23T19:56:19.523Z,26.57
2022-11-23T19:58:46.667Z,29.35
2022-11-23T20:01:15.404Z,30.90
2022-11-23T20:03:44.883Z,35.55
2022-11-23T20:06:14.550Z,28.52
2022-11-23T20:08:41.529Z,33.17
2022-11-23T20:11:09.820Z,37.10
2022-11-23T20:13:36.799Z,27.83
2022-11-23T20:16:09.157Z,26.50
2022-11-23T20:18:35.624Z,25.30
2022-11-23T20:21:02.213Z,24.10
2022-11-23T20:23:29.473Z,27.98
2022-11-23T20:25:58.687Z,24.05
2022-11-23T20:28:25.908Z,26.15
2022-11-23T20:30:52.476Z,30.70
2022-11-23T20:33:19.903Z,29.60
2022-11-23T20:35:47.387Z,30.80
2022-11-23T20:38:14.575Z,30.60
2022-11-23T20:40:41.200Z,26.65
2022-11-23T20:43:07.573Z,27.13
2022-11-23T20:45:33.964Z,25.70
2022-11-23T20:48:00.458Z,38.03
2022-11-23T20:50:30.256Z,31.48
2022-11-23T20:53:01.955Z,27.13
2022-11-23T20:55:28.733Z,32.95
2022-11-23T20:57:55.183Z,31.67
2022-11-23T21:00:22.566Z,30.17
2022-11-23T21:02:53.166Z,29.48
2022-11-23T21:05:20.520Z,32.33
2022-11-23T21:07:48.396Z,33.88
2022-11-23T21:10:34.118Z,29.95
2022-11-23T21:13:19.700Z,26.70
2022-11-23T21:15:46.727Z,30.88
2022-11-23T21:18:13.966Z,24.83
2022-11-23T21:20:41.207Z,31.67
2022-11-23T21:23:07.688Z,27.85
2022-11-23T21:25:35.483Z,32.10
2022-11-23T21:28:03.256Z,30.15
2022-11-23T21:30:30.754Z,33.08
2022-11-23T21:32:57.494Z,32.63
2022-11-23T21:35:24.178Z,27.85
2022-11-23T21:37:50.638Z,32.15
2022-11-23T21:40:17.113Z,27.35
2022-11-23T21:42:44.680Z,30.35
2022-11-23T21:45:11.255Z,36.47
2022-11-23T21:47:37.656Z,29.42
2022-11-23T21:50:04.817Z,25.63
2022-11-23T21:52:31.188Z,28.50
2022-11-23T21:54:57.573Z,26.08
2022-11-23T21:57:24.000Z,26.85
2022-11-23T21:59:50.439Z,26.63
2022-11-23T22:02:17.003Z,24.85
2022-11-23T22:04:43.575Z,25.60
2022-11-23T22:07:10.199Z,21.10
2022-11-23T22:09:37.964Z,31.20
2022-11-23T22:12:04.644Z,26.10
2022-11-23T22:14:31.814Z,28.92
2022-11-23T22:16:58.519Z,32.13
2022-11-23T22:19:25.011Z,23.10
2022-11-23T22:21:51.588Z,23.45
2022-11-23T22:24:19.730Z,23.33
2022-11-23T22:26:47.590Z,29.60
2022-11-23T22:29:14.464Z,28.30
2022-11-23T22:31:41.317Z,21.95
2022-11-23T22:34:11.370Z,22.05
2022-11-23T22:36:37.960Z,25.70
2022-11-23T22:39:06.482Z,22.17
2022-11-23T22:41:37.912Z,23.23
2022-11-23T22:44:06.659Z,22.25
2022-11-23T22:46:33.362Z,25.10
2022-11-23T22:49:00.085Z,19.77
2022-11-23T22:51:28.843Z,29.83
2022-11-23T22:53:57.328Z,25.10
2022-11-23T22:56:24.613Z,22.92
2022-11-23T22:58:51.150Z,26.10
2022-11-23T23:01:20.585Z,19.25
2022-11-23T23:03:47.258Z,17.55
2022-11-23T23:06:19.303Z,19.48
2022-11-23T23:08:47.361Z,27.73
2022-11-23T23:11:15.108Z,17.67
2022-11-23T23:13:44.817Z,21.70
2022-11-23T23:16:13.413Z,20.17
2022-11-23T23:18:43.460Z,20.00
2022-11-23T23:21:15.430Z,19.67
2022-11-23T23:23:44.526Z,24.20
2022-11-23T23:26:12.445Z,19.60
2022-11-23T23:28:39.234Z,16.80
2022-11-23T23:31:08.557Z,21.98
2022-11-23T23:33:35.487Z,18.83
2022-11-23T23:36:14.055Z,22.35
2022-11-23T23:38:43.393Z,27.20
2022-11-23T23:41:11.421Z,19.57
2022-11-23T23:43:38.472Z,18.95
2022-11-23T23:46:08.074Z,24.40
2022-11-23T23:48:36.278Z,20.58
2022-11-23T23:51:23.827Z,22.52
2022-11-23T23:53:51.537Z,24.35
2022-11-23T23:56:28.763Z,21.40
2022-11-23T23:58:57.121Z,23.65
